Time;durP1;ratioP1;P1;durP2;ratioP2;P2;SDS_P1;SDS_P2;PMS_P1;PMS_P2;Temp;Humidity;BMP_temperature;BMP_pressure;BME280_temperature;BME280_humidity;BME280_pressure;Samples;Min_cycle;Max_cycle;Signal;HPM_P1;HPM_P2
2021/08/10 00:02:23;;;;;;;10.00;5.15;;;23.80;61.60;;;;;;5055386;28;20025;-36
2021/08/10 00:04:49;;;;;;;9.40;5.75;;;23.80;62.30;;;;;;5054410;28;20302;-41
2021/08/10 00:07:15;;;;;;;7.68;5.05;;;23.70;61.80;;;;;;5055200;28;20032;-40
2021/08/10 00:09:41;;;;;;;11.73;5.43;;;23.70;62.00;;;;;;5055413;28;20021;-36
2021/08/10 00:12:07;;;;;;;9.88;6.68;;;23.70;62.40;;;;;;5055592;28;20116;-36
2021/08/10 00:14:32;;;;;;;11.10;5.72;;;23.60;62.70;;;;;;5057413;28;20052;-40
2021/08/10 00:16:58;;;;;;;9.93;5.85;;;23.60;62.80;;;;;;5058782;28;20095;-40
2021/08/10 00:19:24;;;;;;;7.10;5.88;;;23.60;63.00;;;;;;5058883;28;20056;-36
2021/08/10 00:21:49;;;;;;;11.35;6.40;;;23.50;63.10;;;;;;5058826;28;20048;-36
2021/08/10 00:24:15;;;;;;;8.45;6.22;;;23.50;63.40;;;;;;5058802;28;20116;-36
2021/08/10 00:26:40;;;;;;;9.90;6.50;;;23.50;63.70;;;;;;5058622;28;20028;-37
2021/08/10 00:29:06;;;;;;;10.07;6.63;;;23.40;63.80;;;;;;5058884;28;20021;-39
2021/08/10 00:31:32;;;;;;;8.20;6.45;;;23.40;63.80;;;;;;5059171;28;20029;-36
2021/08/10 00:33:57;;;;;;;8.77;6.68;;;23.40;64.10;;;;;;5058751;28;20344;-38
2021/08/10 00:36:23;;;;;;;9.50;6.45;;;23.30;64.20;;;;;;5058957;28;20467;-36
2021/08/10 00:38:50;;;;;;;7.35;6.18;;;23.30;64.30;;;;;;5058624;28;20033;-36
2021/08/10 00:41:16;;;;;;;7.78;6.13;;;23.30;64.40;;;;;;5058778;28;20028;-41
2021/08/10 00:43:43;;;;;;;8.15;6.55;;;23.20;64.60;;;;;;5058758;28;20029;-41
2021/08/10 00:46:13;;;;;;;11.43;7.13;;;23.10;64.80;;;;;;5058892;28;20025;-36
2021/08/10 00:48:39;;;;;;;9.20;6.72;;;23.10;65.10;;;;;;5058839;28;20033;-36
2021/08/10 00:51:07;;;;;;;9.43;6.43;;;23.10;65.20;;;;;;5058876;28;20032;-37
2021/08/10 00:53:33;;;;;;;8.70;6.40;;;23.00;65.40;;;;;;5058362;28;20083;-36
2021/08/10 00:55:59;;;;;;;9.48;6.68;;;23.00;65.50;;;;;;5058645;28;20467;-36
2021/08/10 00:58:25;;;;;;;8.55;6.63;;;22.90;65.90;;;;;;5058113;28;20045;-40
2021/08/10 01:00:50;;;;;;;9.70;7.18;;;22.90;66.10;;;;;;5058046;28;20094;-39
2021/08/10 01:03:16;;;;;;;10.35;7.22;;;22.90;66.50;;;;;;5058024;28;20024;-37
2021/08/10 01:05:47;;;;;;;13.65;7.03;;;22.80;66.90;;;;;;5058589;28;20017;-42
2021/08/10 01:08:34;;;;;;;11.48;7.30;;;22.80;67.20;;;;;;5057974;28;20043;-40
2021/08/10 01:11:29;;;;;;;10.80;7.25;;;22.80;67.50;;;;;;5058295;28;20072;-37
2021/08/10 01:14:17;;;;;;;9.98;7.40;;;22.70;67.50;;;;;;5057892;28;20040;-36
2021/08/10 01:16:51;;;;;;;8.48;6.72;;;22.70;67.60;;;;;;5057548;28;20158;-36
2021/08/10 01:19:39;;;;;;;9.60;6.70;;;22.60;67.90;;;;;;5057857;28;20051;-41
2021/08/10 01:22:06;;;;;;;12.60;7.57;;;22.60;67.90;;;;;;5057746;28;20029;-36
2021/08/10 01:24:40;;;;;;;9.13;7.50;;;22.60;68.40;;;;;;5058099;28;20086;-36
2021/08/10 01:27:27;;;;;;;11.13;7.57;;;22.60;68.60;;;;;;5057665;28;20037;-36
2021/08/10 01:30:12;;;;;;;9.15;7.35;;;22.50;68.80;;;;;;5057946;28;20025;-41
2021/08/10 01:32:40;;;;;;;9.63;7.57;;;22.50;68.90;;;;;;5057602;28;20417;-37
2021/08/10 01:35:08;;;;;;;9.80;7.47;;;22.50;69.30;;;;;;5057571;28;20355;-40
2021/08/10 01:37:35;;;;;;;8.32;7.43;;;22.50;69.30;;;;;;5056298;28;20033;-36
2021/08/10 01:40:09;;;;;;;10.65;8.00;;;22.50;69.60;;;;;;5057425;28;20118;-40
2021/08/10 01:42:38;;;;;;;14.13;7.95;;;22.50;69.80;;;;;;5057238;28;20029;-36
2021/08/10 01:45:05;;;;;;;10.68;7.15;;;22.40;70.00;;;;;;5057594;28;20112;-40
2021/08/10 01:47:32;;;;;;;11.75;7.45;;;22.40;70.10;;;;;;5056012;28;20024;-37
2021/08/10 01:50:00;;;;;;;10.43;7.43;;;22.40;70.20;;;;;;5057577;28;20420;-36
2021/08/10 01:52:26;;;;;;;12.82;7.78;;;22.40;70.50;;;;;;5057288;28;20075;-36
2021/08/10 01:54:53;;;;;;;12.45;7.72;;;22.40;70.60;;;;;;5057278;28;20044;-36
2021/08/10 01:57:19;;;;;;;11.07;8.02;;;22.40;70.80;;;;;;5056990;28;20048;-37
2021/08/10 01:59:51;;;;;;;12.63;7.78;;;22.40;71.00;;;;;;5057117;28;20044;-36
2021/08/10 02:02:17;;;;;;;10.95;7.88;;;22.30;70.80;;;;;;5057119;28;20032;-39
2021/08/10 02:04:45;;;;;;;13.40;7.57;;;22.40;71.00;;;;;;5057219;28;20393;-36
2021/08/10 02:07:12;;;;;;;9.32;7.53;;;22.40;71.00;;;;;;5055691;28;20044;-36
2021/08/10 02:09:38;;;;;;;9.05;7.60;;;22.30;71.00;;;;;;5056965;28;20032;-36
2021/08/10 02:12:04;;;;;;;8.32;6.80;;;22.30;71.00;;;;;;5056721;28;20061;-36
2021/08/10 02:14:31;;;;;;;8.80;7.03;;;22.30;71.10;;;;;;5056676;28;20309;-36
2021/08/10 02:17:01;;;;;;;13.13;7.20;;;22.30;70.90;;;;;;5056484;28;20057;-36
2021/08/10 02:19:30;;;;;;;9.68;7.03;;;22.30;70.90;;;;;;5056957;28;20029;-36
2021/08/10 02:22:03;;;;;;;8.15;6.45;;;22.30;70.90;;;;;;5056826;28;20033;-36
2021/08/10 02:24:52;;;;;;;12.05;7.30;;;22.30;70.80;;;;;;5056341;28;20405;-37
2021/08/10 02:27:35;;;;;;;10.52;7.30;;;22.30;70.80;;;;;;5056286;28;20044;-37
2021/08/10 02:30:12;;;;;;;13.23;7.35;;;22.30;71.00;;;;;;5056506;28;20032;-37
2021/08/10 02:32:41;;;;;;;10.02;7.22;;;22.30;70.90;;;;;;5056839;28;20366;-36
2021/08/10 02:35:08;;;;;;;9.90;8.00;;;22.30;71.00;;;;;;5055281;28;20424;-36
2021/08/10 02:37:36;;;;;;;9.68;7.22;;;22.30;71.30;;;;;;5056034;28;20340;-36
2021/08/10 02:40:06;;;;;;;8.00;6.50;;;22.30;71.30;;;;;;5056445;28;20033;-40
2021/08/10 02:42:32;;;;;;;8.82;7.03;;;22.30;71.20;;;;;;5056212;28;20032;-36
2021/08/10 02:45:01;;;;;;;9.50;6.55;;;22.20;71.10;;;;;;5056277;28;20112;-40
2021/08/10 02:47:28;;;;;;;8.18;7.22;;;22.20;71.30;;;;;;5056300;28;20025;-36
2021/08/10 02:49:54;;;;;;;8.93;7.47;;;22.20;71.30;;;;;;5056338;28;20021;-36
2021/08/10 02:52:20;;;;;;;9.30;7.10;;;22.20;71.50;;;;;;5056293;28;20040;-40
2021/08/10 02:54:47;;;;;;;9.45;7.10;;;22.20;71.60;;;;;;5056072;28;20413;-40
2021/08/10 02:57:38;;;;;;;10.43;7.80;;;22.20;71.80;;;;;;5056048;28;20029;-41
2021/08/10 03:00:06;;;;;;;10.15;7.93;;;22.10;72.10;;;;;;5055748;28;20431;-41
2021/08/10 03:02:36;;;;;;;11.52;8.18;;;22.10;72.40;;;;;;5056203;28;20040;-36
2021/08/10 03:05:29;;;;;;;10.45;8.10;;;22.10;72.80;;;;;;5056393;28;20343;-40
2021/08/10 03:07:57;;;;;;;12.23;9.15;;;22.10;72.80;;;;;;5055523;28;20037;-36
2021/08/10 03:10:26;;;;;;;11.38;8.10;;;22.10;73.50;;;;;;5056118;28;20033;-39
2021/08/10 03:12:53;;;;;;;13.35;8.70;;;22.10;73.60;;;;;;5055667;28;20082;-39
2021/08/10 03:15:27;;;;;;;10.02;8.38;;;22.10;73.70;;;;;;5055750;28;20461;-36
2021/08/10 03:17:57;;;;;;;10.15;8.52;;;22.10;73.70;;;;;;5055919;28;20036;-39
2021/08/10 03:20:24;;;;;;;10.15;8.77;;;22.10;73.70;;;;;;5055819;28;20037;-41
2021/08/10 03:22:51;;;;;;;11.68;8.73;;;22.10;73.90;;;;;;5055737;28;20036;-36
2021/08/10 03:25:19;;;;;;;9.73;8.35;;;22.10;74.10;;;;;;5056059;28;20029;-39
2021/08/10 03:27:49;;;;;;;9.75;8.52;;;22.10;74.20;;;;;;5056030;28;20111;-39
2021/08/10 03:30:16;;;;;;;11.35;9.10;;;22.10;74.20;;;;;;5055980;28;20064;-36
2021/08/10 03:32:44;;;;;;;10.70;8.15;;;22.10;74.40;;;;;;5055487;28;20116;-41
2021/08/10 03:35:10;;;;;;;11.63;9.40;;;22.10;74.50;;;;;;5055619;28;20035;-36
2021/08/10 03:37:36;;;;;;;11.00;8.88;;;22.10;74.80;;;;;;5055504;28;20040;-40
2021/08/10 03:40:05;;;;;;;11.02;8.77;;;22.10;74.90;;;;;;5055618;28;20037;-36
2021/08/10 03:42:32;;;;;;;13.45;9.20;;;22.10;74.90;;;;;;5055643;28;20033;-36
2021/08/10 03:44:57;;;;;;;11.30;8.55;;;22.20;75.10;;;;;;5055523;28;20025;-40
2021/08/10 03:47:23;;;;;;;11.48;8.60;;;22.20;75.20;;;;;;5055449;28;20083;-37
2021/08/10 03:49:51;;;;;;;13.38;9.32;;;22.20;75.10;;;;;;5058600;28;20036;-36
2021/08/10 03:52:17;;;;;;;13.90;9.48;;;22.20;75.30;;;;;;5059669;28;20033;-39
2021/08/10 03:54:43;;;;;;;12.00;9.10;;;22.20;75.30;;;;;;5059573;28;20064;-39
2021/08/10 03:57:20;;;;;;;10.40;8.48;;;22.20;75.40;;;;;;5059516;28;20029;-39
2021/08/10 03:59:49;;;;;;;11.07;9.10;;;22.30;75.40;;;;;;5059492;28;20048;-39
2021/08/10 04:02:15;;;;;;;11.73;9.02;;;22.30;75.70;;;;;;5058950;28;20082;-39
2021/08/10 04:04:44;;;;;;;12.55;9.20;;;22.30;75.70;;;;;;5059109;28;20021;-39
2021/08/10 04:07:09;;;;;;;12.40;8.73;;;22.30;75.60;;;;;;5059204;28;20401;-36
2021/08/10 04:09:37;;;;;;;11.65;9.07;;;22.40;75.70;;;;;;5058965;28;20036;-40
2021/08/10 04:12:05;;;;;;;17.45;9.48;;;22.40;75.80;;;;;;5057661;28;20052;-38
2021/08/10 04:14:31;;;;;;;12.65;9.13;;;22.40;75.90;;;;;;5058825;28;20163;-40
2021/08/10 04:17:05;;;;;;;12.02;9.00;;;22.50;75.70;;;;;;5058348;28;20059;-39
2021/08/10 04:19:33;;;;;;;11.43;9.57;;;22.50;75.70;;;;;;5058743;28;20033;-36
2021/08/10 04:21:59;;;;;;;11.35;9.60;;;22.50;75.70;;;;;;5058350;28;20036;-39
2021/08/10 04:24:25;;;;;;;11.27;9.65;;;22.60;75.60;;;;;;5058461;28;20025;-39
2021/08/10 04:26:51;;;;;;;12.65;9.68;;;22.60;75.50;;;;;;5058790;28;20290;-38
2021/08/10 04:29:17;;;;;;;10.07;8.25;;;22.70;75.40;;;;;;5058869;28;20025;-36
2021/08/10 04:31:43;;;;;;;12.00;9.82;;;22.80;75.40;;;;;;5058722;28;20475;-39
2021/08/10 04:34:09;;;;;;;12.15;8.27;;;22.80;75.40;;;;;;5058398;28;20028;-39
2021/08/10 04:36:35;;;;;;;11.77;9.10;;;22.80;75.00;;;;;;5058093;28;20078;-36
2021/08/10 04:39:00;;;;;;;9.93;7.82;;;22.90;75.20;;;;;;5049149;28;20033;-39
2021/08/10 04:41:27;;;;;;;10.65;8.32;;;23.00;74.70;;;;;;5037941;28;20059;-36
2021/08/10 04:43:52;;;;;;;10.52;8.77;;;23.10;74.60;;;;;;5038271;28;20317;-36
2021/08/10 04:46:19;;;;;;;15.18;9.27;;;23.20;74.30;;;;;;5038185;28;20037;-36
2021/08/10 04:48:45;;;;;;;14.05;9.30;;;23.40;74.10;;;;;;5037871;28;20030;-39
2021/08/10 04:51:13;;;;;;;11.05;9.68;;;23.40;73.90;;;;;;5038555;28;20029;-36
2021/08/10 04:53:39;;;;;;;12.45;9.90;;;23.50;73.60;;;;;;5038032;28;20381;-40
2021/08/10 04:56:05;;;;;;;10.35;9.25;;;23.60;73.40;;;;;;5038346;28;20401;-36
2021/08/10 04:58:31;;;;;;;10.95;8.63;;;23.60;73.10;;;;;;5037344;28;20038;-40
2021/08/10 05:00:56;;;;;;;9.60;8.57;;;23.70;73.00;;;;;;5037315;28;20033;-40
2021/08/10 05:03:22;;;;;;;11.52;9.18;;;23.80;72.70;;;;;;5037504;28;20029;-36
2021/08/10 05:05:48;;;;;;;10.68;8.50;;;23.90;72.80;;;;;;5037972;28;20034;-36
2021/08/10 05:08:15;;;;;;;12.18;9.38;;;24.00;72.60;;;;;;5037551;28;20030;-36
2021/08/10 05:10:42;;;;;;;10.10;8.60;;;24.10;72.50;;;;;;5037487;28;20099;-40
2021/08/10 05:13:08;;;;;;;11.10;8.93;;;24.10;72.40;;;;;;5037117;28;20068;-39
2021/08/10 05:15:35;;;;;;;11.30;10.10;;;24.10;72.00;;;;;;5037392;28;20075;-36
2021/08/10 05:18:01;;;;;;;11.43;8.88;;;24.20;71.90;;;;;;5037205;28;20061;-36
2021/08/10 05:20:26;;;;;;;14.85;11.50;;;24.30;71.70;;;;;;5037283;28;20079;-41
2021/08/10 05:22:52;;;;;;;12.13;10.32;;;24.30;71.50;;;;;;5037163;28;20028;-37
2021/08/10 05:25:18;;;;;;;13.93;11.18;;;24.40;71.20;;;;;;5037514;28;20033;-39
2021/08/10 05:27:43;;;;;;;17.20;10.07;;;24.40;70.90;;;;;;5037063;28;20049;-39
2021/08/10 05:30:10;;;;;;;10.95;9.52;;;24.40;70.60;;;;;;5037034;28;20036;-36
2021/08/10 05:32:35;;;;;;;9.68;8.68;;;24.40;70.50;;;;;;5037272;28;20359;-41
2021/08/10 05:35:01;;;;;;;12.75;9.32;;;24.50;70.70;;;;;;5036976;28;20056;-40
2021/08/10 05:37:27;;;;;;;14.00;9.00;;;24.50;70.50;;;;;;5036925;28;20028;-37
2021/08/10 05:39:52;;;;;;;9.93;8.90;;;24.60;70.30;;;;;;5037389;28;20030;-36
2021/08/10 05:42:18;;;;;;;12.68;9.35;;;24.60;70.60;;;;;;5036600;28;20025;-46
2021/08/10 05:44:44;;;;;;;12.07;9.60;;;24.60;70.50;;;;;;5036811;28;20029;-41
2021/08/10 05:47:09;;;;;;;13.07;8.77;;;24.60;70.20;;;;;;5036902;28;20179;-40
2021/08/10 05:49:35;;;;;;;9.27;8.18;;;24.60;70.10;;;;;;5037049;28;20034;-41
2021/08/10 05:52:02;;;;;;;9.20;8.25;;;24.70;69.80;;;;;;5037128;28;20026;-40
2021/08/10 05:54:28;;;;;;;9.73;8.32;;;24.80;69.60;;;;;;5036548;28;20036;-40
2021/08/10 05:56:54;;;;;;;10.00;8.80;;;24.80;69.40;;;;;;5036490;28;20029;-36
2021/08/10 05:59:20;;;;;;;9.95;8.60;;;24.90;69.10;;;;;;5036406;28;20037;-40
2021/08/10 06:01:46;;;;;;;9.65;8.05;;;24.90;68.80;;;;;;5036406;28;20091;-36
2021/08/10 06:04:11;;;;;;;10.43;8.27;;;25.00;68.50;;;;;;5036241;28;20033;-39
2021/08/10 06:06:37;;;;;;;11.18;9.25;;;25.00;68.40;;;;;;5036782;28;20398;-36
2021/08/10 06:09:06;;;;;;;9.75;8.23;;;25.10;67.80;;;;;;5036149;28;20037;-40
2021/08/10 06:11:33;;;;;;;10.68;7.50;;;25.10;67.60;;;;;;5035786;28;20041;-36
2021/08/10 06:13:58;;;;;;;14.90;7.88;;;25.10;67.50;;;;;;5036500;28;20029;-36
2021/08/10 06:16:24;;;;;;;9.38;7.57;;;25.10;67.30;;;;;;5035771;28;20331;-39
2021/08/10 06:18:50;;;;;;;11.40;7.72;;;25.10;67.50;;;;;;5036195;28;20037;-40
2021/08/10 06:21:16;;;;;;;13.02;8.70;;;25.10;67.60;;;;;;5036667;28;20080;-40
2021/08/10 06:23:42;;;;;;;9.82;7.72;;;25.10;67.70;;;;;;5035879;28;20026;-39
2021/08/10 06:26:08;;;;;;;9.27;7.20;;;25.10;68.30;;;;;;5036352;28;20091;-39
2021/08/10 06:28:33;;;;;;;8.40;7.00;;;25.20;67.70;;;;;;5036233;28;20032;-36
2021/08/10 06:30:59;;;;;;;8.43;7.45;;;25.20;67.60;;;;;;5036581;28;20049;-40
2021/08/10 06:33:25;;;;;;;8.75;7.38;;;25.20;67.30;;;;;;5036501;28;20306;-40
2021/08/10 06:35:51;;;;;;;9.00;6.93;;;25.30;67.40;;;;;;5036416;28;20038;-40
2021/08/10 06:38:16;;;;;;;8.00;7.18;;;25.30;66.70;;;;;;5035938;28;20368;-39
2021/08/10 06:40:42;;;;;;;8.70;6.47;;;25.30;66.80;;;;;;5036195;28;20057;-37
2021/08/10 06:43:09;;;;;;;10.38;7.28;;;25.40;66.70;;;;;;5035686;28;20151;-39
2021/08/10 06:45:35;;;;;;;9.60;7.07;;;25.40;67.60;;;;;;5036296;28;20033;-37
2021/08/10 06:48:01;;;;;;;7.95;6.90;;;25.50;66.70;;;;;;5036142;28;20022;-40
2021/08/10 06:50:28;;;;;;;9.65;6.40;;;25.50;66.80;;;;;;5035633;28;20099;-39
2021/08/10 06:52:54;;;;;;;10.15;7.82;;;25.60;66.70;;;;;;5035590;28;20037;-37
2021/08/10 06:55:20;;;;;;;15.68;7.75;;;25.70;65.90;;;;;;5035892;28;20030;-38
2021/08/10 06:57:46;;;;;;;10.45;7.28;;;25.70;66.10;;;;;;5035619;28;20026;-37
2021/08/10 07:00:12;;;;;;;12.48;8.13;;;25.70;65.80;;;;;;5035833;28;20038;-37
2021/08/10 07:02:38;;;;;;;8.68;7.43;;;25.70;65.40;;;;;;5035588;28;20052;-37
2021/08/10 07:05:04;;;;;;;10.85;7.72;;;25.80;65.50;;;;;;5035904;28;20025;-37
2021/08/10 07:07:30;;;;;;;13.75;11.63;;;25.80;65.60;;;;;;5035535;28;20460;-42
2021/08/10 07:09:55;;;;;;;14.68;12.43;;;25.90;65.60;;;;;;5035787;28;20026;-37
2021/08/10 07:12:21;;;;;;;10.77;7.60;;;26.00;65.60;;;;;;5035492;28;20413;-37
2021/08/10 07:14:47;;;;;;;11.57;7.32;;;26.00;65.80;;;;;;5035099;28;20424;-40
2021/08/10 07:17:13;;;;;;;8.80;7.72;;;26.00;66.20;;;;;;5034475;28;20495;-41
2021/08/10 07:19:38;;;;;;;12.38;7.85;;;26.10;66.10;;;;;;5035743;28;20072;-41
2021/08/10 07:22:04;;;;;;;11.27;9.73;;;26.10;66.10;;;;;;5035086;28;20029;-40
2021/08/10 07:24:30;;;;;;;14.98;9.50;;;26.20;65.70;;;;;;5042528;28;20057;-37
2021/08/10 07:26:56;;;;;;;12.20;9.77;;;26.30;65.50;;;;;;5042286;28;20028;-37
2021/08/10 07:29:22;;;;;;;10.05;7.18;;;26.30;65.30;;;;;;5042526;28;20021;-37
2021/08/10 07:31:47;;;;;;;11.52;10.18;;;26.30;65.60;;;;;;5042057;28;20079;-42
2021/08/10 07:34:13;;;;;;;10.05;8.50;;;26.40;65.30;;;;;;5042316;28;20025;-37
2021/08/10 07:36:39;;;;;;;33.95;9.02;;;26.40;64.90;;;;;;5042009;28;20030;-37
2021/08/10 07:39:05;;;;;;;10.82;7.43;;;26.50;65.20;;;;;;5042221;28;20057;-42
2021/08/10 07:41:31;;;;;;;13.50;7.88;;;26.60;64.70;;;;;;5042081;28;20052;-41
2021/08/10 07:43:57;;;;;;;9.52;6.97;;;26.60;64.50;;;;;;5041937;28;20031;-42
2021/08/10 07:46:23;;;;;;;12.43;10.55;;;26.70;64.60;;;;;;5042157;28;20079;-41
2021/08/10 07:48:50;;;;;;;11.02;9.80;;;26.70;64.30;;;;;;5041732;28;20093;-38
2021/08/10 07:51:16;;;;;;;13.50;8.90;;;26.80;64.20;;;;;;5042205;28;20033;-42
2021/08/10 07:53:42;;;;;;;9.25;7.45;;;26.80;64.00;;;;;;5041556;28;20041;-42
2021/08/10 07:56:08;;;;;;;9.57;8.00;;;26.90;63.90;;;;;;5042223;28;20087;-38
2021/08/10 07:58:34;;;;;;;13.10;8.23;;;26.90;63.40;;;;;;5041623;28;20040;-41
2021/08/10 08:01:00;;;;;;;9.18;8.27;;;27.00;63.50;;;;;;5042007;28;20634;-37
2021/08/10 08:03:26;;;;;;;9.80;7.90;;;27.00;63.20;;;;;;5041419;28;20121;-38
2021/08/10 08:05:51;;;;;;;10.57;8.85;;;27.10;63.10;;;;;;5041633;28;20021;-43
2021/08/10 08:08:18;;;;;;;9.48;7.78;;;27.20;62.70;;;;;;5041714;28;20040;-37
2021/08/10 08:10:43;;;;;;;7.90;7.05;;;27.20;62.50;;;;;;5041836;28;20029;-37
2021/08/10 08:13:09;;;;;;;11.73;8.32;;;27.20;62.60;;;;;;5041737;28;20433;-41
2021/08/10 08:15:35;;;;;;;10.45;7.38;;;27.30;62.50;;;;;;5041583;28;20128;-38
2021/08/10 08:18:01;;;;;;;10.20;6.85;;;27.30;62.00;;;;;;5041956;28;20424;-40
2021/08/10 08:20:27;;;;;;;11.00;7.93;;;27.30;61.60;;;;;;5041465;28;20079;-40
2021/08/10 08:22:53;;;;;;;9.35;7.22;;;27.40;61.60;;;;;;5041993;28;20021;-40
2021/08/10 08:25:19;;;;;;;7.97;7.18;;;27.50;61.50;;;;;;5041687;28;20036;-40
2021/08/10 08:27:44;;;;;;;9.52;6.80;;;27.50;61.70;;;;;;5041444;28;20032;-39
2021/08/10 08:30:11;;;;;;;10.80;6.72;;;27.50;61.50;;;;;;5041533;28;20074;-40
2021/08/10 08:32:37;;;;;;;9.25;7.13;;;27.60;61.20;;;;;;5041312;28;20032;-37
2021/08/10 08:35:03;;;;;;;7.72;6.60;;;27.60;61.40;;;;;;5038789;28;20120;-37
2021/08/10 08:37:29;;;;;;;12.23;6.95;;;27.70;61.40;;;;;;5038220;28;20032;-37
2021/08/10 08:39:55;;;;;;;8.35;6.82;;;27.70;61.20;;;;;;5038400;28;20037;-40
2021/08/10 08:42:22;;;;;;;10.38;6.57;;;27.80;60.90;;;;;;5038004;28;20432;-39
2021/08/10 08:44:48;;;;;;;8.73;6.70;;;27.80;60.70;;;;;;5038230;28;20029;-40
2021/08/10 08:47:18;;;;;;;11.40;7.35;;;27.90;60.70;;;;;;5038065;28;20063;-40
2021/08/10 08:49:47;;;;;;;7.45;6.63;;;27.90;60.30;;;;;;5038210;28;20025;-37
2021/08/10 08:52:15;;;;;;;11.10;6.90;;;28.00;59.90;;;;;;5038430;28;20378;-40
2021/08/10 08:54:41;;;;;;;9.82;7.00;;;28.00;59.40;;;;;;5036826;28;20069;-37
2021/08/10 08:57:07;;;;;;;8.38;7.07;;;28.10;59.70;;;;;;5038048;28;20026;-37
2021/08/10 08:59:33;;;;;;;7.70;6.15;;;28.20;60.00;;;;;;5037948;28;20033;-41
2021/08/10 09:02:00;;;;;;;13.77;6.90;;;28.20;59.70;;;;;;5037735;28;20160;-40
2021/08/10 09:04:26;;;;;;;8.07;6.20;;;28.20;59.90;;;;;;5038083;28;20037;-37
2021/08/10 09:06:54;;;;;;;9.70;6.72;;;28.30;60.10;;;;;;5037415;28;20025;-37
2021/08/10 09:09:26;;;;;;;8.00;6.10;;;28.30;59.50;;;;;;5037974;28;20029;-40
2021/08/10 09:12:00;;;;;;;13.82;6.53;;;28.30;59.40;;;;;;5037485;28;20460;-37
2021/08/10 09:14:47;;;;;;;21.42;6.60;;;28.40;59.10;;;;;;5037556;28;20025;-38
2021/08/10 09:17:19;;;;;;;12.85;6.28;;;28.50;58.80;;;;;;5037872;28;20042;-38
2021/08/10 09:19:52;;;;;;;11.20;6.22;;;28.50;58.80;;;;;;5038238;28;20029;-40
2021/08/10 09:22:23;;;;;;;9.07;7.35;;;28.50;57.90;;;;;;5037316;28;20031;-38
2021/08/10 09:24:59;;;;;;;8.57;6.40;;;28.60;57.80;;;;;;5037674;28;20037;-38
2021/08/10 09:27:28;;;;;;;7.03;5.63;;;28.60;58.10;;;;;;5037579;28;20037;-40
2021/08/10 09:29:55;;;;;;;10.55;6.45;;;28.60;57.80;;;;;;5037657;28;20025;-40
2021/08/10 09:32:21;;;;;;;8.18;6.15;;;28.70;57.80;;;;;;5037361;28;20029;-40
2021/08/10 09:35:06;;;;;;;8.52;5.82;;;28.70;58.10;;;;;;5037467;28;20036;-37
2021/08/10 09:37:32;;;;;;;7.80;5.53;;;28.80;58.30;;;;;;5037454;28;20063;-37
2021/08/10 09:39:58;;;;;;;9.13;6.25;;;28.80;58.10;;;;;;5037427;28;20361;-39
2021/08/10 09:42:25;;;;;;;6.85;6.15;;;28.90;57.60;;;;;;5037094;28;20036;-41
2021/08/10 09:44:57;;;;;;;11.10;6.43;;;28.90;57.40;;;;;;5037478;28;20026;-39
2021/08/10 09:47:33;;;;;;;8.05;5.45;;;28.90;57.50;;;;;;5035750;28;20048;-38
2021/08/10 09:50:00;;;;;;;11.48;6.10;;;29.00;57.30;;;;;;5037254;28;20036;-39
2021/08/10 09:52:33;;;;;;;9.95;5.60;;;29.00;57.40;;;;;;5036842;28;20030;-39
2021/08/10 09:55:15;;;;;;;6.85;5.75;;;29.10;57.20;;;;;;5037069;28;20029;-41
2021/08/10 09:57:44;;;;;;;5.57;5.00;;;29.20;56.90;;;;;;5036766;28;20025;-40
2021/08/10 10:00:10;;;;;;;7.65;5.90;;;29.20;56.90;;;;;;5037051;28;20087;-40
2021/08/10 10:02:36;;;;;;;6.22;5.55;;;29.20;56.70;;;;;;5036826;28;20026;-41
2021/08/10 10:05:03;;;;;;;8.38;5.43;;;29.20;56.50;;;;;;5036779;28;20391;-38
2021/08/10 10:07:28;;;;;;;6.43;5.55;;;29.30;56.60;;;;;;5036814;28;20038;-38
2021/08/10 10:09:55;;;;;;;6.97;5.72;;;29.30;56.60;;;;;;5035563;28;20033;-38
2021/08/10 10:12:23;;;;;;;10.27;5.90;;;29.30;56.50;;;;;;5036206;28;20059;-38
2021/08/10 10:14:50;;;;;;;6.95;5.32;;;29.40;57.00;;;;;;5036182;28;20421;-41
2021/08/10 10:17:17;;;;;;;7.85;5.40;;;29.50;56.80;;;;;;5036785;28;20025;-38
2021/08/10 10:19:44;;;;;;;9.63;5.70;;;29.50;56.90;;;;;;5036444;28;20093;-38
2021/08/10 10:22:21;;;;;;;7.97;5.50;;;29.60;56.60;;;;;;5036361;28;20053;-38
2021/08/10 10:24:56;;;;;;;6.18;5.57;;;29.70;56.60;;;;;;5036141;28;20039;-37
2021/08/10 10:27:23;;;;;;;7.20;5.25;;;29.70;56.60;;;;;;5035363;28;20029;-40
2021/08/10 10:29:54;;;;;;;7.65;5.20;;;29.80;56.20;;;;;;5036075;28;20044;-37
2021/08/10 10:32:21;;;;;;;10.60;5.65;;;29.80;56.00;;;;;;5035929;28;20036;-43
2021/08/10 10:34:47;;;;;;;7.90;5.38;;;29.90;55.80;;;;;;5036145;28;20037;-44
2021/08/10 10:37:22;;;;;;;8.85;4.90;;;29.90;55.70;;;;;;5036314;28;20033;-39
2021/08/10 10:39:51;;;;;;;7.93;5.05;;;29.90;55.90;;;;;;5036460;28;20396;-38
2021/08/10 10:42:17;;;;;;;8.05;5.63;;;30.00;55.80;;;;;;5036317;28;20030;-39
2021/08/10 10:44:52;;;;;;;7.63;5.22;;;30.00;55.50;;;;;;5036408;28;20357;-38
2021/08/10 10:47:23;;;;;;;6.40;4.95;;;30.10;55.10;;;;;;5034769;28;20025;-41
2021/08/10 10:49:58;;;;;;;8.15;5.18;;;30.20;55.00;;;;;;5035922;28;20060;-38
2021/08/10 10:52:32;;;;;;;6.50;4.82;;;30.20;54.80;;;;;;5035935;28;20131;-40
2021/08/10 10:54:58;;;;;;;8.02;5.13;;;30.20;54.50;;;;;;5034824;28;20279;-37
2021/08/10 10:57:32;;;;;;;5.63;4.72;;;30.20;54.70;;;;;;5035143;28;20038;-38
2021/08/10 11:00:07;;;;;;;7.90;5.38;;;30.30;54.40;;;;;;5036042;28;20068;-39
2021/08/10 11:02:36;;;;;;;4.88;4.22;;;30.30;54.30;;;;;;5035583;28;20064;-40
2021/08/10 11:05:17;;;;;;;6.05;5.20;;;30.40;54.40;;;;;;5035970;28;20299;-38
2021/08/10 11:07:52;;;;;;;5.78;4.72;;;30.50;54.10;;;;;;5035698;28;20026;-37
2021/08/10 11:10:44;;;;;;;9.45;4.95;;;30.50;54.00;;;;;;5035668;28;20029;-38
2021/08/10 11:13:19;;;;;;;5.93;4.90;;;30.60;53.90;;;;;;5035855;28;20040;-40
2021/08/10 11:15:44;;;;;;;5.45;4.55;;;30.70;53.50;;;;;;5035369;28;20060;-40
2021/08/10 11:18:10;;;;;;;8.25;4.35;;;30.70;53.50;;;;;;5035956;28;20409;-39
2021/08/10 11:20:37;;;;;;;6.78;4.60;;;30.80;53.40;;;;;;5035360;28;20449;-41
2021/08/10 11:23:24;;;;;;;8.00;4.53;;;30.80;53.00;;;;;;5035560;28;20079;-38
2021/08/10 11:25:58;;;;;;;8.30;4.43;;;30.90;53.00;;;;;;5035936;28;20048;-40
2021/08/10 11:28:43;;;;;;;6.78;4.40;;;31.00;52.80;;;;;;5035390;28;20040;-38
2021/08/10 11:31:11;;;;;;;9.30;5.20;;;31.00;52.80;;;;;;5035294;28;20040;-38
2021/08/10 11:33:41;;;;;;;5.72;4.57;;;31.10;52.40;;;;;;5035307;28;20071;-40
2021/08/10 11:36:13;;;;;;;8.45;4.90;;;31.20;52.60;;;;;;5035534;28;20033;-38
2021/08/10 11:38:44;;;;;;;6.07;4.53;;;31.30;52.70;;;;;;5035649;28;20421;-41
2021/08/10 11:41:12;;;;;;;10.15;5.60;;;31.40;52.80;;;;;;5035697;28;20347;-41
2021/08/10 11:43:42;;;;;;;6.78;4.82;;;31.50;52.00;;;;;;5035659;28;20313;-41
2021/08/10 11:46:30;;;;;;;6.20;4.70;;;31.60;52.00;;;;;;5035913;28;20034;-40
2021/08/10 11:49:01;;;;;;;6.90;4.57;;;31.70;51.60;;;;;;5035339;28;20109;-38
2021/08/10 11:51:27;;;;;;;5.85;4.65;;;31.80;51.70;;;;;;5035332;28;20026;-40
2021/08/10 11:53:55;;;;;;;7.80;5.40;;;31.80;51.40;;;;;;5035016;28;20021;-40
2021/08/10 11:56:28;;;;;;;6.18;4.55;;;32.00;51.20;;;;;;5035486;28;20041;-38
2021/08/10 11:58:55;;;;;;;6.30;4.55;;;32.10;51.20;;;;;;5035301;28;20025;-39
2021/08/10 12:01:22;;;;;;;7.10;4.30;;;32.20;50.90;;;;;;5035624;28;20422;-40
2021/08/10 12:03:48;;;;;;;7.75;4.50;;;32.30;50.90;;;;;;5035624;28;20040;-38
2021/08/10 12:06:13;;;;;;;6.70;4.57;;;32.40;50.60;;;;;;5035728;28;20037;-39
2021/08/10 12:08:42;;;;;;;5.90;4.40;;;32.40;50.40;;;;;;5035517;28;20453;-41
2021/08/10 12:11:10;;;;;;;5.60;4.07;;;32.50;50.00;;;;;;5038694;28;20037;-38
2021/08/10 12:13:37;;;;;;;7.28;4.43;;;32.60;50.00;;;;;;5038866;28;20029;-40
2021/08/10 12:16:08;;;;;;;4.88;4.22;;;32.70;49.70;;;;;;5038790;28;20099;-38
2021/08/10 12:18:34;;;;;;;4.93;4.35;;;32.80;49.60;;;;;;5038977;28;20029;-38
2021/08/10 12:21:04;;;;;;;5.97;4.47;;;32.90;49.40;;;;;;5039172;28;20123;-40
2021/08/10 12:23:42;;;;;;;7.00;4.50;;;33.00;49.40;;;;;;5038715;28;20325;-39
2021/08/10 12:26:15;;;;;;;6.32;4.00;;;33.00;48.90;;;;;;5038816;28;20057;-41
2021/08/10 12:29:13;;;;;;;7.50;4.32;;;33.20;49.20;;;;;;5038765;28;20026;-40
2021/08/10 12:31:45;;;;;;;7.53;4.28;;;33.40;49.20;;;;;;5036954;28;20073;-40
2021/08/10 12:34:11;;;;;;;9.18;3.90;;;33.50;48.90;;;;;;5038191;28;20083;-39
2021/08/10 12:36:50;;;;;;;5.43;4.20;;;33.50;48.60;;;;;;5038240;28;20033;-38
2021/08/10 12:39:16;;;;;;;;;;;33.70;48.70;;;;;;5039135;28;20061;-38
2021/08/10 12:41:42;;;;;;;5.97;4.30;;;33.70;49.70;;;;;;5038383;28;20270;-38
2021/08/10 12:44:10;;;;;;;7.20;3.83;;;33.80;48.40;;;;;;5038233;28;20104;-38
2021/08/10 12:46:36;;;;;;;5.22;3.75;;;33.90;48.40;;;;;;5037993;28;20091;-40
2021/08/10 12:49:13;;;;;;;5.82;4.43;;;34.00;48.00;;;;;;5037210;28;20017;-40
2021/08/10 12:51:57;;;;;;;8.32;3.83;;;34.10;47.80;;;;;;5037989;28;20310;-40